Fortaleza, Brasil

01:02 AM BRT em 05 de Março de 2015 (GMT -0300)
Pinto Martins International | Change Station
CLOSE
Current Station
Aeroporto
Location: Fortaleza - Pinto Martins,
Altitude: 82 ft
Estações Meteorológicas Próximas

Elev 82 ft 3.78 °S, 38.53 °W | Updated 2 minutes ago

Scattered Clouds
Nuvens Dispersas
81 °F
Aparente 85 °F
N
6
Vento Variável Vento de Este

Hoje
Máxima -- | Mínima -- °F
--% Possibilidade de Precip.
Ontem
Máxima -- | Mínima -- °F
Precip. -- pol
5:40 AM 5:50 PM
Lua cheia, 100% visible
Pressão 29.86 pol
Visibilidade 6.2 milhas
Nuvens Nuvens Dispersas 1500 ft
Índice de Calor 85 °F
Ponto de Orvalho 73 °F
Humidade 79%
Chuva 0.00 pol
Altura de Neve Não disponível
UV 0 em vez de 12
Pólen Não disponível
Qualidade do Ar Não disponível
Flu Activity Não disponível
METAR SBFZ 050400Z 09005KT 9999 SCT015 27/23 Q1011

More Conditions Fewer Conditions

Pressão 29.86 pol
Visibilidade 6.2 milhas
Nuvens Nuvens Dispersas 1500 ft
Índice de Calor 85 °F
Ponto de Orvalho 73 °F
Humidade 79%
Chuva 0.00 pol
Altura de Neve Não disponível
UV 0 em vez de 12
Pólen Não disponível
Qualidade do Ar Não disponível
Flu Activity Não disponível
METAR SBFZ 050400Z 09005KT 9999 SCT015 27/23 Q1011

More Conditions Fewer Conditions

10-Day Weather Forecast

Almanac

Astronomia

Mar. 05, 2015 Nascer Pôr
Hora atual
Crepúsculo civil
Crepúsculo náutico
Crepúsculo astronómico
Lua
Comprimento da luz visível
Duração do Dia
Tomorrow will be .
, % of the Moon is Illuminated

Extremos de Hoje

Altitude na localidade Altura mais baixa na localidade

Community

WunderPhotos

Upload Photos

1,802,667 fotografias inseridas!

WunderBlogs® & News

Nearby

Qualidade do Ar

  Qualidade do Ar Índice da Q.A. Poluente
Not available.

Altura da Neve

Estação altura Altitude

Actividade Sísmisca

Cidade Distância Mag. Hora & Data
Mínima magnitude apresentada é 2.5.

Temperaturas das Águas Costeiras

Local Temperatura

Estações Meteorológicas Próximas